Time;durP1;ratioP1;P1;durP2;ratioP2;P2;SDS_P1;SDS_P2;PMS_P1;PMS_P2;Temp;Humidity;BMP_temperature;BMP_pressure;BME280_temperature;BME280_humidity;BME280_pressure;Samples;Min_cycle;Max_cycle;Signal;HPM_P1;HPM_P2
2021/10/27 00:00:07;;;;;;;;;;;;;;;;;;347186;28;822;-78
2021/10/27 00:00:29;;;;;;;;;;;;;;;;;;347247;28;988;-83
2021/10/27 00:00:40;;;;;;;;;;;;;;;;;;346975;28;1369;-85
2021/10/27 00:01:16;;;;;;;;;;;;;;;;;;347229;28;814;-86
2021/10/27 00:01:26;;;;;;;;;;;;;;;;;;345609;28;1337;-84
2021/10/27 00:01:37;;;;;;;;;;;;;;;;;;344356;28;1272;-84
2021/10/27 00:01:50;;;;;;;;;;;;;;;;;;345692;28;980;-85
2021/10/27 00:02:01;;;;;;;;;;;;;;;;;;345710;28;888;-85
2021/10/27 00:02:11;;;;;;;;;;;;;;;;;;348294;28;1281;-83
2021/10/27 00:02:21;;;;;;;;;;;;;;;;;;348527;28;861;-86
2021/10/27 00:02:32;;;;;;;;;;;;;;;;;;347150;28;984;-83
2021/10/27 00:02:42;;;;;;;;;;;;;;;;;;349699;28;1497;-82
2021/10/27 00:02:52;;;;;;;;;;;;;;;;;;348622;28;1486;-82
2021/10/27 00:03:03;;;;;;;;;;;;;;;;;;348562;28;912;-83
2021/10/27 00:03:13;;;;;;;;;;;;;;;;;;348491;28;916;-85
2021/10/27 00:03:24;;;;;;;;;;;;;;;;;;348555;28;822;-82
2021/10/27 00:03:34;;;;;;;;;;;;;;;;;;348374;28;1595;-83
2021/10/27 00:03:44;;;;;;;;;;;;;;;;;;347136;28;1211;-81
2021/10/27 00:03:55;;;;;;;;;;;;;;;;;;348554;28;814;-81
2021/10/27 00:04:21;;;;;;;;;;;;;;;;;;348618;28;861;-81
2021/10/27 00:04:32;;;;;;;;;;;;;;;;;;348511;28;1035;-81
2021/10/27 00:04:42;;;;;;;;;;;;;;;;;;348457;28;1446;-79
2021/10/27 00:04:52;;;;;;;;;;;;;;;;;;348541;28;925;-82
2021/10/27 00:05:04;;;;;;;;;;;;;;;;;;348419;28;1740;-81
2021/10/27 00:05:14;;;;;;;;;;;;;;;;;;348253;28;1289;-82
2021/10/27 00:05:40;;;;;;;;;;;;;;;;;;347125;28;806;-82
2021/10/27 00:05:50;;;;;;;;;;;;;;;;;;347047;28;972;-87
2021/10/27 00:06:04;;;;;;;;;;;;;;;;;;347172;28;874;-84
2021/10/27 00:06:15;;;;;;;;;;;;;;;;;;347155;28;1019;-83
2021/10/27 00:06:26;;;;;;;;;;;;;;;;;;347115;28;1051;-85
2021/10/27 00:06:37;;;;;;;;;;;;;;;;;;344529;28;1476;-85
2021/10/27 00:06:48;;;;;;;;;;;;;;;;;;347118;28;1007;-87
2021/10/27 00:06:58;;;;;;;;;;;;;;;;;;347149;28;881;-84
2021/10/27 00:07:09;;;;;;;;;;;;;;;;;;346773;28;1481;-84
2021/10/27 00:07:20;;;;;;;;;;;;;;;;;;348389;28;781;-84
2021/10/27 00:07:30;;;;;;;;;;;;;;;;;;346984;28;869;-85
2021/10/27 00:07:41;;;;;;;;;;;;;;;;;;345680;28;1668;-83
2021/10/27 00:07:52;;;;;;;;;;;;;;;;;;348386;28;988;-83
2021/10/27 00:08:02;;;;;;;;;;;;;;;;;;349576;28;1285;-81
2021/10/27 00:08:13;;;;;;;;;;;;;;;;;;349894;28;1329;-83
2021/10/27 00:08:23;;;;;;;;;;;;;;;;;;347148;28;1004;-84
2021/10/27 00:08:49;;;;;;;;;;;;;;;;;;347192;28;989;-84
2021/10/27 00:09:00;;;;;;;;;;;;;;;;;;347155;28;861;-83
2021/10/27 00:09:10;;;;;;;;;;;;;;;;;;344441;28;807;-85
2021/10/27 00:09:30;;;;;;;;;;;;;;;;;;345805;28;793;-83
2021/10/27 00:09:55;;;;;;;;;;;;;;;;;;347159;28;993;-84
2021/10/27 00:10:06;;;;;;;;;;;;;;;;;;346972;28;1325;-79
2021/10/27 00:10:16;;;;;;;;;;;;;;;;;;347032;28;1197;-82
2021/10/27 00:10:27;;;;;;;;;;;;;;;;;;348504;28;1145;-80
2021/10/27 00:10:37;;;;;;;;;;;;;;;;;;347129;28;848;-83
2021/10/27 00:10:48;;;;;;;;;;;;;;;;;;347137;28;798;-81
2021/10/27 00:10:58;;;;;;;;;;;;;;;;;;347192;28;901;-77
2021/10/27 00:11:09;;;;;;;;;;;;;;;;;;347183;28;826;-80
2021/10/27 00:11:19;;;;;;;;;;;;;;;;;;347181;28;956;-82
2021/10/27 00:11:30;;;;;;;;;;;;;;;;;;347157;28;992;-84
2021/10/27 00:11:40;;;;;;;;;;;;;;;;;;347122;28;873;-85
2021/10/27 00:11:50;;;;;;;;;;;;;;;;;;348399;28;1296;-83
2021/10/27 00:12:01;;;;;;;;;;;;;;;;;;346773;28;1347;-84
2021/10/27 00:12:11;;;;;;;;;;;;;;;;;;346923;28;1089;-81
2021/10/27 00:12:22;;;;;;;;;;;;;;;;;;345725;28;965;-83
2021/10/27 00:12:32;;;;;;;;;;;;;;;;;;348504;28;1026;-84
2021/10/27 00:12:43;;;;;;;;;;;;;;;;;;347068;28;1582;-83
2021/10/27 00:12:53;;;;;;;;;;;;;;;;;;347074;28;1610;-81
2021/10/27 00:13:06;;;;;;;;;;;;;;;;;;347154;28;893;-78
2021/10/27 00:13:31;;;;;;;;;;;;;;;;;;345722;28;1165;-80
2021/10/27 00:13:43;;;;;;;;;;;;;;;;;;344415;28;930;-77
2021/10/27 00:13:53;;;;;;;;;;;;;;;;;;345719;28;1329;-79
2021/10/27 00:14:03;;;;;;;;;;;;;;;;;;347102;28;869;-82
2021/10/27 00:14:14;;;;;;;;;;;;;;;;;;347178;28;929;-79
2021/10/27 00:14:24;;;;;;;;;;;;;;;;;;345706;28;1288;-79
2021/10/27 00:14:35;;;;;;;;;;;;;;;;;;345853;28;909;-81
2021/10/27 00:15:02;;;;;;;;;;;;;;;;;;345694;28;940;-81
2021/10/27 00:15:12;;;;;;;;;;;;;;;;;;345765;28;1043;-86
2021/10/27 00:15:23;;;;;;;;;;;;;;;;;;345792;28;818;-85
2021/10/27 00:15:34;;;;;;;;;;;;;;;;;;345792;28;839;-82
2021/10/27 00:15:44;;;;;;;;;;;;;;;;;;345744;28;948;-84
2021/10/27 00:15:55;;;;;;;;;;;;;;;;;;343097;28;866;-86
2021/10/27 00:16:06;;;;;;;;;;;;;;;;;;344350;28;1435;-85
2021/10/27 00:16:16;;;;;;;;;;;;;;;;;;344441;28;839;-80
2021/10/27 00:16:53;;;;;;;;;;;;;;;;;;345562;28;1348;-80
2021/10/27 00:17:03;;;;;;;;;;;;;;;;;;345754;28;1910;-78
2021/10/27 00:17:14;;;;;;;;;;;;;;;;;;345693;28;984;-77
2021/10/27 00:17:56;;;;;;;;;;;;;;;;;;344316;28;1280;-83
2021/10/27 00:18:06;;;;;;;;;;;;;;;;;;344420;28;1028;-82
2021/10/27 00:18:17;;;;;;;;;;;;;;;;;;345732;28;1292;-80
2021/10/27 00:18:43;;;;;;;;;;;;;;;;;;345857;28;838;-83
2021/10/27 00:18:53;;;;;;;;;;;;;;;;;;347022;28;894;-78
2021/10/27 00:19:03;;;;;;;;;;;;;;;;;;347023;28;1187;-79
2021/10/27 00:19:14;;;;;;;;;;;;;;;;;;347128;28;892;-79
2021/10/27 00:19:24;;;;;;;;;;;;;;;;;;348353;28;862;-81
2021/10/27 00:19:35;;;;;;;;;;;;;;;;;;348497;28;949;-79
2021/10/27 00:19:45;;;;;;;;;;;;;;;;;;346988;28;1621;-83
2021/10/27 00:19:55;;;;;;;;;;;;;;;;;;345836;28;1499;-82
2021/10/27 00:20:06;;;;;;;;;;;;;;;;;;347199;28;791;-84
2021/10/27 00:20:16;;;;;;;;;;;;;;;;;;347192;28;944;-81
2021/10/27 00:20:27;;;;;;;;;;;;;;;;;;347123;28;909;-77
2021/10/27 00:20:37;;;;;;;;;;;;;;;;;;347112;28;920;-82
2021/10/27 00:20:47;;;;;;;;;;;;;;;;;;347063;28;1319;-85
2021/10/27 00:20:58;;;;;;;;;;;;;;;;;;347167;28;759;-84
2021/10/27 00:21:08;;;;;;;;;;;;;;;;;;345784;28;913;-83
2021/10/27 00:21:34;;;;;;;;;;;;;;;;;;344216;28;1378;-81
2021/10/27 00:21:45;;;;;;;;;;;;;;;;;;346922;28;1474;-83
2021/10/27 00:22:12;;;;;;;;;;;;;;;;;;346792;28;1422;-85
2021/10/27 00:22:22;;;;;;;;;;;;;;;;;;347055;28;1055;-75
2021/10/27 00:22:33;;;;;;;;;;;;;;;;;;347038;28;1001;-81
2021/10/27 00:22:43;;;;;;;;;;;;;;;;;;346856;28;1467;-79
2021/10/27 00:22:53;;;;;;;;;;;;;;;;;;345799;28;842;-79
2021/10/27 00:23:04;;;;;;;;;;;;;;;;;;345712;28;1440;-79
2021/10/27 00:23:14;;;;;;;;;;;;;;;;;;345781;28;1043;-77
2021/10/27 00:23:24;;;;;;;;;;;;;;;;;;347057;28;1562;-81
2021/10/27 00:23:35;;;;;;;;;;;;;;;;;;346958;28;1186;-85
2021/10/27 00:24:11;;;;;;;;;;;;;;;;;;347038;28;1280;-85
2021/10/27 00:24:21;;;;;;;;;;;;;;;;;;348520;28;846;-85
2021/10/27 00:24:32;;;;;;;;;;;;;;;;;;345708;28;1379;-86
2021/10/27 00:24:54;;;;;;;;;;;;;;;;;;345697;28;905;-87
2021/10/27 00:25:31;;;;;;;;;;;;;;;;;;347181;28;826;-87
2021/10/27 00:25:42;;;;;;;;;;;;;;;;;;344346;28;1156;-85
2021/10/27 00:25:52;;;;;;;;;;;;;;;;;;344341;28;981;-84
2021/10/27 00:26:02;;;;;;;;;;;;;;;;;;344387;28;969;-81
2021/10/27 00:26:13;;;;;;;;;;;;;;;;;;347154;28;810;-79
2021/10/27 00:26:23;;;;;;;;;;;;;;;;;;346927;28;1314;-78
2021/10/27 00:26:34;;;;;;;;;;;;;;;;;;346933;28;1443;-81
2021/10/27 00:27:00;;;;;;;;;;;;;;;;;;347115;28;956;-78
2021/10/27 00:27:10;;;;;;;;;;;;;;;;;;347043;28;1482;-80
2021/10/27 00:27:21;;;;;;;;;;;;;;;;;;348490;28;921;-79
2021/10/27 00:27:31;;;;;;;;;;;;;;;;;;348436;28;845;-78
2021/10/27 00:27:42;;;;;;;;;;;;;;;;;;345637;28;1195;-82
2021/10/27 00:27:52;;;;;;;;;;;;;;;;;;344373;28;968;-84
2021/10/27 00:28:18;;;;;;;;;;;;;;;;;;345692;28;1271;-83
2021/10/27 00:28:35;;;;;;;;;;;;;;;;;;348424;28;1191;-83
2021/10/27 00:29:01;;;;;;;;;;;;;;;;;;348471;28;972;-79
2021/10/27 00:29:11;;;;;;;;;;;;;;;;;;345748;28;1098;-83
2021/10/27 00:29:21;;;;;;;;;;;;;;;;;;347100;28;984;-81
2021/10/27 00:29:32;;;;;;;;;;;;;;;;;;347149;28;984;-77
2021/10/27 00:29:42;;;;;;;;;;;;;;;;;;347115;28;810;-84
2021/10/27 00:29:52;;;;;;;;;;;;;;;;;;347185;28;881;-82
2021/10/27 00:30:03;;;;;;;;;;;;;;;;;;345713;28;1450;-85
2021/10/27 00:30:14;;;;;;;;;;;;;;;;;;345658;28;799;-83
2021/10/27 00:30:24;;;;;;;;;;;;;;;;;;345711;28;837;-83
2021/10/27 00:30:49;;;;;;;;;;;;;;;;;;347133;28;807;-83
2021/10/27 00:31:00;;;;;;;;;;;;;;;;;;347094;28;961;-81
2021/10/27 00:31:10;;;;;;;;;;;;;;;;;;344307;28;1423;-83
2021/10/27 00:31:21;;;;;;;;;;;;;;;;;;345765;28;914;-83
2021/10/27 00:31:31;;;;;;;;;;;;;;;;;;344379;28;1487;-83
2021/10/27 00:31:57;;;;;;;;;;;;;;;;;;347061;28;1326;-77
2021/10/27 00:32:07;;;;;;;;;;;;;;;;;;347123;28;838;-76
2021/10/27 00:32:17;;;;;;;;;;;;;;;;;;347109;28;980;-76
2021/10/27 00:32:49;;;;;;;;;;;;;;;;;;342892;28;979;-85
2021/10/27 00:33:25;;;;;;;;;;;;;;;;;;347096;28;877;-75
2021/10/27 00:33:37;;;;;;;;;;;;;;;;;;348256;28;1288;-77
2021/10/27 00:33:50;;;;;;;;;;;;;;;;;;348497;28;968;-85
2021/10/27 00:34:00;;;;;;;;;;;;;;;;;;348485;28;897;-85
2021/10/27 00:34:37;;;;;;;;;;;;;;;;;;347047;28;905;-85
2021/10/27 00:35:16;;;;;;;;;;;;;;;;;;347153;28;973;-83
2021/10/27 00:35:27;;;;;;;;;;;;;;;;;;344292;28;1459;-81
2021/10/27 00:35:37;;;;;;;;;;;;;;;;;;345712;28;1347;-82
2021/10/27 00:35:48;;;;;;;;;;;;;;;;;;347061;28;1155;-85
2021/10/27 00:35:58;;;;;;;;;;;;;;;;;;348514;28;1059;-85
2021/10/27 00:36:25;;;;;;;;;;;;;;;;;;347034;28;1446;-83
2021/10/27 00:36:35;;;;;;;;;;;;;;;;;;347092;28;981;-83
2021/10/27 00:36:45;;;;;;;;;;;;;;;;;;346951;28;1605;-84
2021/10/27 00:36:56;;;;;;;;;;;;;;;;;;344341;28;1297;-83
2021/10/27 00:37:06;;;;;;;;;;;;;;;;;;348149;28;1901;-84
2021/10/27 00:37:16;;;;;;;;;;;;;;;;;;348518;28;941;-82
2021/10/27 00:37:27;;;;;;;;;;;;;;;;;;347134;28;1035;-82
2021/10/27 00:37:37;;;;;;;;;;;;;;;;;;348311;28;1461;-81
2021/10/27 00:37:47;;;;;;;;;;;;;;;;;;345562;28;1282;-79
2021/10/27 00:37:58;;;;;;;;;;;;;;;;;;346906;28;1161;-78
2021/10/27 00:38:34;;;;;;;;;;;;;;;;;;348472;28;933;-76
2021/10/27 00:38:45;;;;;;;;;;;;;;;;;;345812;28;1458;-79
2021/10/27 00:38:55;;;;;;;;;;;;;;;;;;347046;28;1459;-75
2021/10/27 00:39:06;;;;;;;;;;;;;;;;;;347003;28;822;-80
2021/10/27 00:39:16;;;;;;;;;;;;;;;;;;347117;28;830;-85
2021/10/27 00:39:27;;;;;;;;;;;;;;;;;;348396;28;1399;-82
2021/10/27 00:39:53;;;;;;;;;;;;;;;;;;348421;28;1654;-83
2021/10/27 00:40:04;;;;;;;;;;;;;;;;;;348462;28;897;-84
2021/10/27 00:40:15;;;;;;;;;;;;;;;;;;347170;28;1307;-86
2021/10/27 00:40:25;;;;;;;;;;;;;;;;;;347126;28;988;-84
2021/10/27 00:40:35;;;;;;;;;;;;;;;;;;348475;28;829;-85
2021/10/27 00:41:11;;;;;;;;;;;;;;;;;;346964;28;1315;-83
2021/10/27 00:41:22;;;;;;;;;;;;;;;;;;342991;28;1513;-82
2021/10/27 00:41:32;;;;;;;;;;;;;;;;;;345700;28;1072;-83
2021/10/27 00:41:43;;;;;;;;;;;;;;;;;;345462;28;1260;-80
2021/10/27 00:42:08;;;;;;;;;;;;;;;;;;345711;28;1635;-82
2021/10/27 00:42:19;;;;;;;;;;;;;;;;;;345776;28;826;-76
2021/10/27 00:42:29;;;;;;;;;;;;;;;;;;344444;28;1222;-74
2021/10/27 00:42:40;;;;;;;;;;;;;;;;;;347170;28;884;-75
2021/10/27 00:43:31;;;;;;;;;;;;;;;;;;347057;28;931;-75
2021/10/27 00:43:42;;;;;;;;;;;;;;;;;;347106;28;981;-75
2021/10/27 00:43:52;;;;;;;;;;;;;;;;;;347114;28;1048;-76
2021/10/27 00:44:03;;;;;;;;;;;;;;;;;;347081;28;1314;-77
2021/10/27 00:44:29;;;;;;;;;;;;;;;;;;346876;28;1430;-76
2021/10/27 00:44:40;;;;;;;;;;;;;;;;;;347093;28;1011;-78
2021/10/27 00:44:50;;;;;;;;;;;;;;;;;;345874;28;1324;-80
2021/10/27 00:45:13;;;;;;;;;;;;;;;;;;345726;28;909;-80
2021/10/27 00:45:39;;;;;;;;;;;;;;;;;;347176;28;893;-85
2021/10/27 00:45:49;;;;;;;;;;;;;;;;;;347013;28;826;-81
2021/10/27 00:45:59;;;;;;;;;;;;;;;;;;345748;28;925;-82
2021/10/27 00:46:20;;;;;;;;;;;;;;;;;;346987;28;1475;-86
2021/10/27 00:46:30;;;;;;;;;;;;;;;;;;345552;28;1477;-83
2021/10/27 00:46:41;;;;;;;;;;;;;;;;;;345688;28;794;-81
2021/10/27 00:47:00;;;;;;;;;;;;;;;;;;345783;28;870;-84
2021/10/27 00:47:11;;;;;;;;;;;;;;;;;;344445;28;795;-79
2021/10/27 00:47:22;;;;;;;;;;;;;;;;;;343024;28;872;-80
2021/10/27 00:47:32;;;;;;;;;;;;;;;;;;344293;28;1313;-79
2021/10/27 00:47:58;;;;;;;;;;;;;;;;;;344381;28;830;-75
2021/10/27 00:48:08;;;;;;;;;;;;;;;;;;346972;28;909;-76
2021/10/27 00:48:18;;;;;;;;;;;;;;;;;;348220;28;1612;-80
2021/10/27 00:48:44;;;;;;;;;;;;;;;;;;348246;28;1324;-78
2021/10/27 00:48:55;;;;;;;;;;;;;;;;;;348465;28;890;-81
2021/10/27 00:49:21;;;;;;;;;;;;;;;;;;347167;28;1466;-82
2021/10/27 00:49:57;;;;;;;;;;;;;;;;;;348496;28;937;-79
2021/10/27 00:50:08;;;;;;;;;;;;;;;;;;345787;28;1447;-79
2021/10/27 00:50:18;;;;;;;;;;;;;;;;;;345667;28;831;-74
2021/10/27 00:50:30;;;;;;;;;;;;;;;;;;347065;28;1432;-75
2021/10/27 00:50:40;;;;;;;;;;;;;;;;;;345765;28;798;-75
2021/10/27 00:50:51;;;;;;;;;;;;;;;;;;348450;28;964;-74
2021/10/27 00:51:01;;;;;;;;;;;;;;;;;;348405;28;889;-74
2021/10/27 00:51:11;;;;;;;;;;;;;;;;;;345625;28;1393;-74
2021/10/27 00:51:22;;;;;;;;;;;;;;;;;;344381;28;849;-77
2021/10/27 00:51:32;;;;;;;;;;;;;;;;;;345719;28;926;-74
2021/10/27 00:52:50;;;;;;;;;;;;;;;;;;348349;28;1554;-76
2021/10/27 00:53:00;;;;;;;;;;;;;;;;;;346922;28;1166;-77
2021/10/27 00:53:26;;;;;;;;;;;;;;;;;;348349;28;1492;-74
2021/10/27 00:53:37;;;;;;;;;;;;;;;;;;348460;28;985;-74
2021/10/27 00:53:48;;;;;;;;;;;;;;;;;;349893;28;912;-74
2021/10/27 00:53:58;;;;;;;;;;;;;;;;;;348423;28;925;-74
2021/10/27 00:54:09;;;;;;;;;;;;;;;;;;347069;28;1000;-74
2021/10/27 00:54:20;;;;;;;;;;;;;;;;;;345657;28;1390;-74
2021/10/27 00:54:30;;;;;;;;;;;;;;;;;;347047;28;1030;-75
2021/10/27 00:54:42;;;;;;;;;;;;;;;;;;346960;28;1136;-74
2021/10/27 00:54:53;;;;;;;;;;;;;;;;;;347062;28;1204;-77
2021/10/27 00:55:04;;;;;;;;;;;;;;;;;;345815;28;1559;-75
2021/10/27 00:55:26;;;;;;;;;;;;;;;;;;347045;28;1169;-75
2021/10/27 00:55:57;;;;;;;;;;;;;;;;;;344334;28;1034;-75
2021/10/27 00:56:07;;;;;;;;;;;;;;;;;;341622;29;803;-78
2021/10/27 00:56:18;;;;;;;;;;;;;;;;;;344024;28;1154;-74
2021/10/27 00:56:34;;;;;;;;;;;;;;;;;;345756;28;1459;-73
2021/10/27 00:56:45;;;;;;;;;;;;;;;;;;346994;28;1287;-77
2021/10/27 00:56:55;;;;;;;;;;;;;;;;;;345631;28;846;-78
2021/10/27 00:57:06;;;;;;;;;;;;;;;;;;345623;28;1956;-74
2021/10/27 00:57:20;;;;;;;;;;;;;;;;;;345788;28;1007;-75
2021/10/27 00:57:30;;;;;;;;;;;;;;;;;;347097;28;843;-74
2021/10/27 00:57:40;;;;;;;;;;;;;;;;;;347075;28;909;-75
2021/10/27 00:57:52;;;;;;;;;;;;;;;;;;345720;28;1052;-75
2021/10/27 00:58:02;;;;;;;;;;;;;;;;;;347093;28;818;-77
2021/10/27 00:58:19;;;;;;;;;;;;;;;;;;344150;28;1499;-76
2021/10/27 00:58:29;;;;;;;;;;;;;;;;;;345762;28;1116;-75
2021/10/27 00:58:40;;;;;;;;;;;;;;;;;;345536;28;1480;-76
2021/10/27 00:58:51;;;;;;;;;;;;;;;;;;345658;28;1284;-77
2021/10/27 00:59:01;;;;;;;;;;;;;;;;;;347155;28;791;-76
2021/10/27 00:59:15;;;;;;;;;;;;;;;;;;343065;28;1405;-75
2021/10/27 00:59:26;;;;;;;;;;;;;;;;;;343141;28;807;-74
2021/10/27 00:59:40;;;;;;;;;;;;;;;;;;344368;28;1589;-76
2021/10/27 00:59:50;;;;;;;;;;;;;;;;;;344361;28;949;-76
2021/10/27 01:00:00;;;;;;;;;;;;;;;;;;347143;28;1208;-75
2021/10/27 01:00:11;;;;;;;;;;;;;;;;;;345634;28;1372;-74
2021/10/27 01:00:21;;;;;;;;;;;;;;;;;;345775;28;913;-73
2021/10/27 01:00:32;;;;;;;;;;;;;;;;;;348547;28;849;-75
2021/10/27 01:00:57;;;;;;;;;;;;;;;;;;348206;28;1659;-74
2021/10/27 01:01:24;;;;;;;;;;;;;;;;;;348464;28;925;-76
2021/10/27 01:01:35;;;;;;;;;;;;;;;;;;348440;28;806;-74
2021/10/27 01:02:27;;;;;;;;;;;;;;;;;;347869;28;940;-76
2021/10/27 01:02:41;;;;;;;;;;;;;;;;;;348985;28;905;-77
2021/10/27 01:02:51;;;;;;;;;;;;;;;;;;349772;28;1232;-74
2021/10/27 01:03:02;;;;;;;;;;;;;;;;;;348365;28;985;-77
2021/10/27 01:03:27;;;;;;;;;;;;;;;;;;347028;28;818;-77
2021/10/27 01:03:53;;;;;;;;;;;;;;;;;;346860;28;1647;-79
2021/10/27 01:05:01;;;;;;;;;;;;;;;;;;345716;28;861;-74
2021/10/27 01:05:12;;;;;;;;;;;;;;;;;;348038;28;1060;-80
2021/10/27 01:05:23;;;;;;;;;;;;;;;;;;348434;28;822;-78
2021/10/27 01:05:33;;;;;;;;;;;;;;;;;;349035;28;814;-77
2021/10/27 01:05:44;;;;;;;;;;;;;;;;;;349851;28;849;-75
2021/10/27 01:05:55;;;;;;;;;;;;;;;;;;348304;28;1059;-75
2021/10/27 01:06:25;;;;;;;;;;;;;;;;;;344380;28;1078;-74
2021/10/27 01:06:35;;;;;;;;;;;;;;;;;;344279;28;1060;-80
2021/10/27 01:06:46;;;;;;;;;;;;;;;;;;344231;28;1456;-75
2021/10/27 01:06:57;;;;;;;;;;;;;;;;;;344314;28;1456;-75
2021/10/27 01:07:07;;;;;;;;;;;;;;;;;;344392;28;925;-76
2021/10/27 01:07:18;;;;;;;;;;;;;;;;;;345694;28;1016;-88
2021/10/27 01:07:28;;;;;;;;;;;;;;;;;;345733;28;1032;-88
2021/10/27 01:07:54;;;;;;;;;;;;;;;;;;347000;28;1168;-87
2021/10/27 01:08:04;;;;;;;;;;;;;;;;;;347050;28;850;-89
2021/10/27 01:08:14;;;;;;;;;;;;;;;;;;345794;28;1463;-89
2021/10/27 01:08:25;;;;;;;;;;;;;;;;;;345664;28;1245;-86
2021/10/27 01:08:38;;;;;;;;;;;;;;;;;;347069;28;841;-86
2021/10/27 01:08:48;;;;;;;;;;;;;;;;;;347122;28;925;-87
2021/10/27 01:08:59;;;;;;;;;;;;;;;;;;349849;28;932;-87
2021/10/27 01:09:09;;;;;;;;;;;;;;;;;;348506;28;813;-86
2021/10/27 01:09:35;;;;;;;;;;;;;;;;;;346996;28;1587;-84
2021/10/27 01:09:45;;;;;;;;;;;;;;;;;;344418;28;973;-85
2021/10/27 01:09:55;;;;;;;;;;;;;;;;;;346908;28;1499;-84
2021/10/27 01:10:06;;;;;;;;;;;;;;;;;;347118;28;977;-86
2021/10/27 01:10:16;;;;;;;;;;;;;;;;;;345590;28;949;-86
2021/10/27 01:10:26;;;;;;;;;;;;;;;;;;347106;28;988;-86
2021/10/27 01:10:37;;;;;;;;;;;;;;;;;;344308;28;1274;-86
2021/10/27 01:10:47;;;;;;;;;;;;;;;;;;344320;28;1425;-85
2021/10/27 01:10:58;;;;;;;;;;;;;;;;;;348491;28;794;-86
2021/10/27 01:11:08;;;;;;;;;;;;;;;;;;345763;28;861;-87
2021/10/27 01:11:18;;;;;;;;;;;;;;;;;;346991;28;1443;-88
2021/10/27 01:11:29;;;;;;;;;;;;;;;;;;345741;28;873;-83
2021/10/27 01:11:40;;;;;;;;;;;;;;;;;;344346;28;1327;-84
2021/10/27 01:11:51;;;;;;;;;;;;;;;;;;344349;28;823;-86
2021/10/27 01:12:10;;;;;;;;;;;;;;;;;;347034;28;1211;-85
2021/10/27 01:12:21;;;;;;;;;;;;;;;;;;347083;28;925;-85
2021/10/27 01:12:31;;;;;;;;;;;;;;;;;;344297;28;1306;-86
2021/10/27 01:12:42;;;;;;;;;;;;;;;;;;341668;29;1430;-85
2021/10/27 01:12:52;;;;;;;;;;;;;;;;;;345351;28;1497;-84
2021/10/27 01:13:02;;;;;;;;;;;;;;;;;;346889;28;1423;-85
2021/10/27 01:13:31;;;;;;;;;;;;;;;;;;347147;28;925;-84
2021/10/27 01:13:42;;;;;;;;;;;;;;;;;;347039;28;834;-86
2021/10/27 01:13:53;;;;;;;;;;;;;;;;;;345701;28;791;-86
2021/10/27 01:14:03;;;;;;;;;;;;;;;;;;345724;28;1028;-82
2021/10/27 01:14:14;;;;;;;;;;;;;;;;;;345696;28;1576;-85
2021/10/27 01:14:32;;;;;;;;;;;;;;;;;;344443;28;810;-84
2021/10/27 01:14:43;;;;;;;;;;;;;;;;;;344293;28;878;-84
2021/10/27 01:14:59;;;;;;;;;;;;;;;;;;345584;28;1290;-85
2021/10/27 01:15:10;;;;;;;;;;;;;;;;;;347024;28;1188;-83
2021/10/27 01:15:35;;;;;;;;;;;;;;;;;;348474;28;798;-76
2021/10/27 01:15:48;;;;;;;;;;;;;;;;;;348466;28;945;-85
2021/10/27 01:16:14;;;;;;;;;;;;;;;;;;347047;28;857;-85
2021/10/27 01:16:25;;;;;;;;;;;;;;;;;;347035;28;985;-85
2021/10/27 01:16:36;;;;;;;;;;;;;;;;;;345761;28;1004;-87
2021/10/27 01:16:46;;;;;;;;;;;;;;;;;;347085;28;857;-78
2021/10/27 01:17:12;;;;;;;;;;;;;;;;;;345741;28;799;-83
2021/10/27 01:17:22;;;;;;;;;;;;;;;;;;345770;28;949;-85
2021/10/27 01:17:49;;;;;;;;;;;;;;;;;;345736;28;985;-86
2021/10/27 01:17:59;;;;;;;;;;;;;;;;;;347069;28;1341;-85
2021/10/27 01:18:10;;;;;;;;;;;;;;;;;;346701;28;1377;-85
2021/10/27 01:18:20;;;;;;;;;;;;;;;;;;344282;28;1452;-84
2021/10/27 01:18:30;;;;;;;;;;;;;;;;;;348345;28;1152;-82
2021/10/27 01:18:56;;;;;;;;;;;;;;;;;;348364;28;1023;-85
2021/10/27 01:19:18;;;;;;;;;;;;;;;;;;348684;28;932;-84
2021/10/27 01:19:32;;;;;;;;;;;;;;;;;;347389;28;794;-84
2021/10/27 01:19:47;;;;;;;;;;;;;;;;;;346031;28;780;-82
2021/10/27 01:19:58;;;;;;;;;;;;;;;;;;346012;28;925;-80
2021/10/27 01:20:09;;;;;;;;;;;;;;;;;;348661;28;1238;-79
2021/10/27 01:20:20;;;;;;;;;;;;;;;;;;347263;28;1427;-78
2021/10/27 01:20:30;;;;;;;;;;;;;;;;;;348710;28;1562;-78
2021/10/27 01:20:40;;;;;;;;;;;;;;;;;;347358;28;837;-76
2021/10/27 01:21:20;;;;;;;;;;;;;;;;;;344655;28;925;-76
2021/10/27 01:21:30;;;;;;;;;;;;;;;;;;347294;28;993;-80
2021/10/27 01:21:56;;;;;;;;;;;;;;;;;;349898;28;1474;-77
2021/10/27 01:22:22;;;;;;;;;;;;;;;;;;350188;28;837;-74
2021/10/27 01:22:33;;;;;;;;;;;;;;;;;;347214;28;1597;-76
2021/10/27 01:22:43;;;;;;;;;;;;;;;;;;344705;28;1300;-75
2021/10/27 01:23:09;;;;;;;;;;;;;;;;;;348725;28;917;-78
2021/10/27 01:23:20;;;;;;;;;;;;;;;;;;348711;28;892;-79
2021/10/27 01:23:30;;;;;;;;;;;;;;;;;;347285;28;1268;-75
2021/10/27 01:23:40;;;;;;;;;;;;;;;;;;345733;28;1296;-76
2021/10/27 01:23:51;;;;;;;;;;;;;;;;;;344546;28;1482;-75
2021/10/27 01:24:01;;;;;;;;;;;;;;;;;;347374;28;992;-75
2021/10/27 01:24:27;;;;;;;;;;;;;;;;;;347371;28;973;-75
2021/10/27 01:24:37;;;;;;;;;;;;;;;;;;348497;28;1415;-75
2021/10/27 01:24:48;;;;;;;;;;;;;;;;;;347356;28;921;-75
2021/10/27 01:24:58;;;;;;;;;;;;;;;;;;347348;28;972;-76
2021/10/27 01:25:10;;;;;;;;;;;;;;;;;;347335;28;964;-79
2021/10/27 01:25:21;;;;;;;;;;;;;;;;;;347114;28;1439;-83
2021/10/27 01:26:38;;;;;;;;;;;;;;;;;;347223;28;1482;-81
2021/10/27 01:27:41;;;;;;;;;;;;;;;;;;347350;28;835;-86
2021/10/27 01:27:53;;;;;;;;;;;;;;;;;;344517;28;1307;-85
2021/10/27 01:28:04;;;;;;;;;;;;;;;;;;347362;28;1000;-86
2021/10/27 01:28:14;;;;;;;;;;;;;;;;;;344635;28;874;-85
2021/10/27 01:28:50;;;;;;;;;;;;;;;;;;347183;28;1315;-86
2021/10/27 01:29:00;;;;;;;;;;;;;;;;;;345880;28;914;-85
2021/10/27 01:29:26;;;;;;;;;;;;;;;;;;347270;28;1290;-84
2021/10/27 01:29:37;;;;;;;;;;;;;;;;;;348707;28;930;-84
2021/10/27 01:29:47;;;;;;;;;;;;;;;;;;348772;28;940;-76
2021/10/27 01:29:58;;;;;;;;;;;;;;;;;;348689;28;1572;-79
2021/10/27 01:30:12;;;;;;;;;;;;;;;;;;348773;28;842;-88
2021/10/27 01:30:23;;;;;;;;;;;;;;;;;;346023;28;1196;-83
2021/10/27 01:30:33;;;;;;;;;;;;;;;;;;348777;28;921;-86
2021/10/27 01:30:43;;;;;;;;;;;;;;;;;;348751;28;827;-84
2021/10/27 01:30:54;;;;;;;;;;;;;;;;;;347324;28;1434;-82
2021/10/27 01:31:04;;;;;;;;;;;;;;;;;;347376;28;1446;-80
2021/10/27 01:31:15;;;;;;;;;;;;;;;;;;347333;28;980;-81
2021/10/27 01:31:25;;;;;;;;;;;;;;;;;;350108;28;810;-76
2021/10/27 01:31:44;;;;;;;;;;;;;;;;;;348590;28;1512;-77
2021/10/27 01:31:55;;;;;;;;;;;;;;;;;;348755;28;898;-80
2021/10/27 01:32:05;;;;;;;;;;;;;;;;;;345978;28;921;-78
2021/10/27 01:32:31;;;;;;;;;;;;;;;;;;347248;28;1631;-81
2021/10/27 01:32:48;;;;;;;;;;;;;;;;;;347308;28;1064;-79
2021/10/27 01:33:24;;;;;;;;;;;;;;;;;;344566;28;933;-80
2021/10/27 01:33:35;;;;;;;;;;;;;;;;;;348695;28;1273;-74
2021/10/27 01:33:45;;;;;;;;;;;;;;;;;;350097;28;957;-78
2021/10/27 01:33:57;;;;;;;;;;;;;;;;;;347289;28;1000;-74
2021/10/27 01:34:07;;;;;;;;;;;;;;;;;;347281;28;802;-75
2021/10/27 01:34:18;;;;;;;;;;;;;;;;;;345996;28;818;-78
2021/10/27 01:34:28;;;;;;;;;;;;;;;;;;347334;28;1024;-76
2021/10/27 01:34:38;;;;;;;;;;;;;;;;;;345942;28;1298;-74
2021/10/27 01:34:49;;;;;;;;;;;;;;;;;;348459;28;1316;-74
2021/10/27 01:35:41;;;;;;;;;;;;;;;;;;347222;28;1310;-74
2021/10/27 01:35:51;;;;;;;;;;;;;;;;;;344667;28;1550;-75
2021/10/27 01:36:17;;;;;;;;;;;;;;;;;;344678;28;1490;-74
2021/10/27 01:36:29;;;;;;;;;;;;;;;;;;344631;28;1069;-76
2021/10/27 01:36:55;;;;;;;;;;;;;;;;;;345938;28;893;-86
2021/10/27 01:37:22;;;;;;;;;;;;;;;;;;347336;28;1005;-86
2021/10/27 01:37:36;;;;;;;;;;;;;;;;;;345887;28;1430;-86
2021/10/27 01:37:46;;;;;;;;;;;;;;;;;;347323;28;937;-85
2021/10/27 01:37:56;;;;;;;;;;;;;;;;;;348677;28;1024;-87
2021/10/27 01:38:33;;;;;;;;;;;;;;;;;;348732;28;1031;-86
2021/10/27 01:38:49;;;;;;;;;;;;;;;;;;345989;28;842;-87
2021/10/27 01:39:00;;;;;;;;;;;;;;;;;;344567;28;1598;-85
2021/10/27 01:39:10;;;;;;;;;;;;;;;;;;345778;28;1346;-86
2021/10/27 01:39:21;;;;;;;;;;;;;;;;;;345884;28;1274;-86
2021/10/27 01:39:47;;;;;;;;;;;;;;;;;;343330;28;1439;-83
2021/10/27 01:39:57;;;;;;;;;;;;;;;;;;344462;28;1359;-86
2021/10/27 01:40:35;;;;;;;;;;;;;;;;;;344581;28;897;-84
2021/10/27 01:40:45;;;;;;;;;;;;;;;;;;347307;28;1024;-85
2021/10/27 01:40:56;;;;;;;;;;;;;;;;;;347217;28;932;-82
2021/10/27 01:41:32;;;;;;;;;;;;;;;;;;345952;28;989;-87
2021/10/27 01:41:42;;;;;;;;;;;;;;;;;;348500;28;1459;-84
2021/10/27 01:41:52;;;;;;;;;;;;;;;;;;348697;28;1603;-86
2021/10/27 01:42:03;;;;;;;;;;;;;;;;;;350063;28;933;-83
2021/10/27 01:42:13;;;;;;;;;;;;;;;;;;350063;28;1214;-85
2021/10/27 01:42:24;;;;;;;;;;;;;;;;;;347286;28;1187;-86
2021/10/27 01:42:34;;;;;;;;;;;;;;;;;;348410;28;1285;-81
2021/10/27 01:42:44;;;;;;;;;;;;;;;;;;348793;28;964;-87
2021/10/27 01:42:56;;;;;;;;;;;;;;;;;;345987;28;1467;-83
2021/10/27 01:43:48;;;;;;;;;;;;;;;;;;344656;28;859;-84
2021/10/27 01:43:58;;;;;;;;;;;;;;;;;;344656;28;819;-83
2021/10/27 01:44:09;;;;;;;;;;;;;;;;;;347249;28;917;-75
2021/10/27 01:44:19;;;;;;;;;;;;;;;;;;347126;28;922;-77
2021/10/27 01:44:45;;;;;;;;;;;;;;;;;;346006;28;846;-83
2021/10/27 01:45:11;;;;;;;;;;;;;;;;;;346039;28;1454;-86
2021/10/27 01:45:26;;;;;;;;;;;;;;;;;;347275;28;1024;-81
2021/10/27 01:45:36;;;;;;;;;;;;;;;;;;348611;28;1662;-77
2021/10/27 01:45:46;;;;;;;;;;;;;;;;;;348706;28;826;-78